Time;durP1;ratioP1;P1;durP2;ratioP2;P2;SDS_P1;SDS_P2;PMS_P1;PMS_P2;Temp;Humidity;BMP_temperature;BMP_pressure;BME280_temperature;BME280_humidity;BME280_pressure;Samples;Min_cycle;Max_cycle;Signal;HPM_P1;HPM_P2
2022/04/30 00:01:21;;;;;;;;;;;;;;;;;;2214147;59;1993;-70
2022/04/30 00:03:54;;;;;;;;;;;;;;;;;;2213766;59;1510;-70
2022/04/30 00:06:27;;;;;;;;;;;;;;;;;;2213348;58;1776;-70
2022/04/30 00:09:03;;;;;;;;;;;;;;;;;;2213047;59;1594;-70
2022/04/30 00:11:36;;;;;;;;;;;;;;;;;;2215001;59;1262;-70
2022/04/30 00:14:09;;;;;;;;;;;;;;;;;;2213752;59;1213;-70
2022/04/30 00:16:42;;;;;;;;;;;;;;;;;;2213762;59;1264;-69
2022/04/30 00:19:16;;;;;;;;;;;;;;;;;;2214221;59;1210;-70
2022/04/30 00:21:49;;;;;;;;;;;;;;;;;;2213756;59;2012;-70
2022/04/30 00:24:26;;;;;;;;;;;;;;;;;;2213339;66;1322;-70
2022/04/30 00:26:59;;;;;;;;;;;;;;;;;;2214636;59;1695;-70
2022/04/30 00:29:33;;;;;;;;;;;;;;;;;;2214390;59;1100;-70
2022/04/30 00:32:06;;;;;;;;;;;;;;;;;;2214006;59;1137;-70
2022/04/30 00:34:39;;;;;;;;;;;;;;;;;;2212724;67;1180;-70
2022/04/30 00:37:12;;;;;;;;;;;;;;;;;;2214730;59;1189;-70
2022/04/30 00:39:48;;;;;;;;;;;;;;;;;;2213783;59;1168;-71
2022/04/30 00:42:21;;;;;;;;;;;;;;;;;;2214215;59;1978;-70
2022/04/30 00:44:54;;;;;;;;;;;;;;;;;;2213916;59;1177;-70
2022/04/30 00:47:28;;;;;;;;;;;;;;;;;;2213555;59;2022;-70
2022/04/30 00:50:01;;;;;;;;;;;;;;;;;;2213530;59;1839;-70
2022/04/30 00:52:34;;;;;;;;;;;;;;;;;;2214990;59;1578;-70
2022/04/30 00:55:11;;;;;;;;;;;;;;;;;;2215727;59;1476;-70
2022/04/30 00:57:45;;;;;;;;;;;;;;;;;;2214193;59;1593;-70
2022/04/30 01:00:19;;;;;;;;;;;;;;;;;;2213931;59;1996;-70
2022/04/30 01:02:52;;;;;;;;;;;;;;;;;;2214261;59;1613;-70
2022/04/30 01:05:25;;;;;;;;;;;;;;;;;;2214181;59;1251;-69
2022/04/30 01:07:58;;;;;;;;;;;;;;;;;;2214212;58;1856;-70
2022/04/30 01:10:35;;;;;;;;;;;;;;;;;;2215133;59;1327;-70
2022/04/30 01:13:08;;;;;;;;;;;;;;;;;;2212883;59;1600;-70
2022/04/30 01:15:41;;;;;;;;;;;;;;;;;;2213897;59;1227;-70
2022/04/30 01:18:15;;;;;;;;;;;;;;;;;;2214299;59;1247;-69
2022/04/30 01:20:51;;;;;;;;;;;;;;;;;;2214169;59;1936;-69
2022/04/30 01:23:27;;;;;;;;;;;;;;;;;;2213973;59;1210;-70
2022/04/30 01:26:01;;;;;;;;;;;;;;;;;;2214262;59;1964;-69
2022/04/30 01:28:34;;;;;;;;;;;;;;;;;;2213107;59;1203;-69
2022/04/30 01:37:22;;;;;;;;;;;;;;;;;;2214432;67;1281;-69
2022/04/30 01:39:42;;;;;;;;;;;;;;;;;;2214882;66;1875;-68
2022/04/30 01:42:16;;;;;;;;;;;;;;;;;;2213893;59;1925;-67
2022/04/30 01:44:49;;;;;;;;;;;;;;;;;;2213148;66;1280;-68
2022/04/30 01:47:24;;;;;;;;;;;;;;;;;;2213303;59;1628;-67
2022/04/30 01:49:57;;;;;;;;;;;;;;;;;;2213186;59;1223;-68
2022/04/30 01:52:31;;;;;;;;;;;;;;;;;;2213480;59;1224;-68
2022/04/30 01:55:07;;;;;;;;;;;;;;;;;;2215057;59;1452;-68
2022/04/30 01:57:41;;;;;;;;;;;;;;;;;;2214773;59;1369;-67
2022/04/30 02:00:20;;;;;;;;;;;;;;;;;;2213425;59;1189;-68
2022/04/30 02:02:54;;;;;;;;;;;;;;;;;;2214392;66;1932;-67
2022/04/30 02:05:27;;;;;;;;;;;;;;;;;;2213586;59;1276;-68
2022/04/30 02:08:03;;;;;;;;;;;;;;;;;;2214382;59;1707;-68
2022/04/30 02:10:40;;;;;;;;;;;;;;;;;;2213489;59;1188;-67
2022/04/30 02:13:13;;;;;;;;;;;;;;;;;;2213036;59;1500;-68
2022/04/30 02:15:46;;;;;;;;;;;;;;;;;;2214247;59;1230;-67
2022/04/30 02:18:21;;;;;;;;;;;;;;;;;;2213503;59;1245;-68
2022/04/30 02:20:56;;;;;;;;;;;;;;;;;;2214747;59;1937;-68
2022/04/30 02:23:30;;;;;;;;;;;;;;;;;;2215120;66;1468;-67
2022/04/30 02:26:06;;;;;;;;;;;;;;;;;;2214294;59;1458;-67
2022/04/30 02:28:40;;;;;;;;;;;;;;;;;;2214499;59;1268;-67
2022/04/30 02:31:23;;;;;;;;;;;;;;;;;;2214113;66;1306;-67
2022/04/30 02:33:57;;;;;;;;;;;;;;;;;;2214346;59;1274;-67
2022/04/30 02:36:30;;;;;;;;;;;;;;;;;;2213845;66;1247;-68
2022/04/30 02:39:03;;;;;;;;;;;;;;;;;;2214319;59;1275;-67
2022/04/30 02:41:39;;;;;;;;;;;;;;;;;;2214317;59;1931;-67
2022/04/30 02:44:12;;;;;;;;;;;;;;;;;;2215149;59;1249;-67
2022/04/30 02:46:46;;;;;;;;;;;;;;;;;;2214331;59;1780;-67
2022/04/30 02:49:19;;;;;;;;;;;;;;;;;;2213969;59;1233;-67
2022/04/30 02:51:52;;;;;;;;;;;;;;;;;;2215240;59;1366;-66
2022/04/30 02:54:25;;;;;;;;;;;;;;;;;;2214849;59;1559;-67
2022/04/30 02:57:01;;;;;;;;;;;;;;;;;;2214736;59;1339;-66
2022/04/30 03:02:22;;;;;;;;;;;;;;;;;;2212284;59;1992;-67
2022/04/30 03:04:55;;;;;;;;;;;;;;;;;;2214302;59;1144;-67
2022/04/30 03:07:28;;;;;;;;;;;;;;;;;;2213455;59;1856;-66
2022/04/30 03:10:01;;;;;;;;;;;;;;;;;;2211588;67;1488;-66
2022/04/30 03:12:37;;;;;;;;;;;;;;;;;;2213530;59;1420;-66
2022/04/30 03:15:11;;;;;;;;;;;;;;;;;;2213530;59;1310;-66
2022/04/30 03:23:47;;;;;;;;;;;;;;;;;;2199778;59;1286;-66
2022/04/30 03:26:20;;;;;;;;;;;;;;;;;;2211569;59;1734;-66
2022/04/30 03:28:57;;;;;;;;;;;;;;;;;;2212876;66;1152;-66
2022/04/30 03:31:31;;;;;;;;;;;;;;;;;;2213372;59;1523;-66
2022/04/30 03:34:04;;;;;;;;;;;;;;;;;;2213471;59;1258;-66
2022/04/30 03:36:38;;;;;;;;;;;;;;;;;;2214312;67;1241;-66
2022/04/30 03:39:11;;;;;;;;;;;;;;;;;;2214475;59;1312;-66
2022/04/30 03:41:44;;;;;;;;;;;;;;;;;;2214356;66;1929;-67
2022/04/30 03:44:20;;;;;;;;;;;;;;;;;;2213803;59;1210;-67
2022/04/30 03:46:53;;;;;;;;;;;;;;;;;;2213076;59;1797;-66
2022/04/30 03:49:26;;;;;;;;;;;;;;;;;;2213335;59;1302;-66
2022/04/30 03:52:00;;;;;;;;;;;;;;;;;;2214330;59;1413;-66
2022/04/30 03:54:33;;;;;;;;;;;;;;;;;;2214112;59;1522;-66
2022/04/30 03:57:06;;;;;;;;;;;;;;;;;;2214476;59;1449;-67
2022/04/30 03:59:42;;;;;;;;;;;;;;;;;;2215163;59;2240;-66
2022/04/30 04:02:15;;;;;;;;;;;;;;;;;;2214103;59;1915;-68
2022/04/30 04:04:49;;;;;;;;;;;;;;;;;;2214148;59;1103;-67
2022/04/30 04:07:23;;;;;;;;;;;;;;;;;;2214450;59;1918;-66
2022/04/30 04:09:56;;;;;;;;;;;;;;;;;;2213454;66;1047;-67
2022/04/30 04:12:29;;;;;;;;;;;;;;;;;;2215165;59;1284;-66
2022/04/30 04:17:54;;;;;;;;;;;;;;;;;;2213379;59;1397;-66
2022/04/30 04:20:27;;;;;;;;;;;;;;;;;;2214701;59;1334;-66
2022/04/30 04:23:01;;;;;;;;;;;;;;;;;;2213924;59;2020;-66
2022/04/30 04:28:23;;;;;;;;;;;;;;;;;;2213805;59;1902;-66
2022/04/30 04:30:59;;;;;;;;;;;;;;;;;;2213370;59;2410;-66
2022/04/30 04:33:32;;;;;;;;;;;;;;;;;;2213421;59;1202;-67
2022/04/30 04:36:06;;;;;;;;;;;;;;;;;;2214347;67;1226;-67
2022/04/30 04:38:40;;;;;;;;;;;;;;;;;;2210428;59;1231;-67
2022/04/30 04:41:13;;;;;;;;;;;;;;;;;;2215094;59;1294;-67
2022/04/30 04:43:46;;;;;;;;;;;;;;;;;;2214901;66;1931;-66
2022/04/30 04:46:22;;;;;;;;;;;;;;;;;;2213529;59;1577;-66
2022/04/30 04:48:55;;;;;;;;;;;;;;;;;;2215170;59;1496;-67
2022/04/30 04:51:29;;;;;;;;;;;;;;;;;;2212008;67;2092;-67
2022/04/30 04:54:03;;;;;;;;;;;;;;;;;;2214707;59;1969;-67
2022/04/30 04:56:36;;;;;;;;;;;;;;;;;;2214682;59;1414;-67
2022/04/30 04:59:09;;;;;;;;;;;;;;;;;;2213946;59;1113;-67
2022/04/30 05:01:48;;;;;;;;;;;;;;;;;;2213914;67;1988;-66
2022/04/30 05:04:22;;;;;;;;;;;;;;;;;;2214617;59;1217;-67
2022/04/30 05:06:55;;;;;;;;;;;;;;;;;;2214620;59;1619;-67
2022/04/30 05:09:28;;;;;;;;;;;;;;;;;;2215059;59;1251;-67
2022/04/30 05:12:02;;;;;;;;;;;;;;;;;;2210981;59;1476;-66
2022/04/30 05:14:35;;;;;;;;;;;;;;;;;;2214565;59;1666;-67
2022/04/30 05:17:11;;;;;;;;;;;;;;;;;;2214483;66;1243;-67
2022/04/30 05:19:44;;;;;;;;;;;;;;;;;;2214600;59;1172;-66
2022/04/30 05:22:18;;;;;;;;;;;;;;;;;;2215321;59;2001;-66
2022/04/30 05:24:51;;;;;;;;;;;;;;;;;;2213551;59;1667;-66
2022/04/30 05:27:24;;;;;;;;;;;;;;;;;;2212966;59;1759;-67
2022/04/30 05:29:57;;;;;;;;;;;;;;;;;;2214274;59;1266;-66
2022/04/30 05:32:33;;;;;;;;;;;;;;;;;;2212782;59;1728;-67
2022/04/30 05:35:06;;;;;;;;;;;;;;;;;;2212927;59;1787;-67
2022/04/30 05:37:40;;;;;;;;;;;;;;;;;;2212521;59;1703;-67
2022/04/30 05:40:13;;;;;;;;;;;;;;;;;;2213724;59;1690;-67
2022/04/30 05:42:47;;;;;;;;;;;;;;;;;;2214264;59;1990;-67
2022/04/30 05:45:20;;;;;;;;;;;;;;;;;;2214349;59;1145;-66
2022/04/30 05:47:56;;;;;;;;;;;;;;;;;;2213397;59;1630;-66
2022/04/30 05:50:29;;;;;;;;;;;;;;;;;;2209132;59;1393;-66
2022/04/30 05:53:02;;;;;;;;;;;;;;;;;;2214277;59;1327;-67
2022/04/30 05:55:35;;;;;;;;;;;;;;;;;;2214615;59;1801;-66
2022/04/30 05:58:08;;;;;;;;;;;;;;;;;;2212802;59;1622;-67
2022/04/30 06:00:41;;;;;;;;;;;;;;;;;;2214349;59;1220;-67
2022/04/30 06:03:17;;;;;;;;;;;;;;;;;;2213725;66;1941;-67
2022/04/30 06:05:50;;;;;;;;;;;;;;;;;;2213287;59;1712;-67
2022/04/30 06:08:23;;;;;;;;;;;;;;;;;;2213347;58;2079;-67
2022/04/30 06:10:57;;;;;;;;;;;;;;;;;;2214367;59;1262;-67
2022/04/30 06:13:30;;;;;;;;;;;;;;;;;;2213592;66;1283;-67
2022/04/30 06:16:03;;;;;;;;;;;;;;;;;;2215067;59;1200;-67
2022/04/30 06:18:39;;;;;;;;;;;;;;;;;;2214008;59;1354;-67
2022/04/30 06:21:12;;;;;;;;;;;;;;;;;;2213776;59;1503;-66
2022/04/30 06:23:45;;;;;;;;;;;;;;;;;;2213938;59;1983;-67
2022/04/30 06:26:18;;;;;;;;;;;;;;;;;;2211139;59;1962;-67
2022/04/30 06:28:52;;;;;;;;;;;;;;;;;;2211926;59;1834;-67
2022/04/30 06:31:25;;;;;;;;;;;;;;;;;;2213874;66;1288;-66
2022/04/30 06:34:00;;;;;;;;;;;;;;;;;;2211775;59;1187;-66
2022/04/30 06:36:34;;;;;;;;;;;;;;;;;;2213165;59;1680;-67
2022/04/30 06:39:07;;;;;;;;;;;;;;;;;;2213690;59;1537;-67
2022/04/30 06:41:41;;;;;;;;;;;;;;;;;;2213772;66;1148;-66
2022/04/30 06:44:14;;;;;;;;;;;;;;;;;;2213246;59;1936;-67
2022/04/30 06:46:47;;;;;;;;;;;;;;;;;;2214295;59;1763;-67
2022/04/30 06:49:23;;;;;;;;;;;;;;;;;;2214310;59;1216;-67
2022/04/30 06:51:57;;;;;;;;;;;;;;;;;;2214872;59;1365;-66
2022/04/30 06:57:27;;;;;;;;;;;;;;;;;;2205749;59;2407;-66
2022/04/30 07:00:39;;;;;;;;;;;;;;;;;;2213205;59;1649;-66
2022/04/30 07:02:55;;;;;;;;;;;;;;;;;;2213450;59;1932;-66
2022/04/30 07:05:31;;;;;;;;;;;;;;;;;;2213177;59;1283;-66
2022/04/30 07:08:05;;;;;;;;;;;;;;;;;;2219434;53;3593;-67
2022/04/30 07:10:38;;;;;;;;;;;;;;;;;;2220228;58;1332;-67
2022/04/30 07:13:11;;;;;;;;;;;;;;;;;;2221787;58;1631;-67
2022/04/30 07:15:44;;;;;;;;;;;;;;;;;;2222038;58;1145;-67
2022/04/30 07:18:17;;;;;;;;;;;;;;;;;;2221747;58;1206;-67
2022/04/30 07:20:55;;;;;;;;;;;;;;;;;;2221634;58;1541;-67
2022/04/30 07:23:29;;;;;;;;;;;;;;;;;;2218295;66;1992;-67
2022/04/30 07:26:02;;;;;;;;;;;;;;;;;;2222207;58;1145;-67
2022/04/30 07:28:36;;;;;;;;;;;;;;;;;;2221173;58;1902;-67
2022/04/30 07:31:09;;;;;;;;;;;;;;;;;;2222777;66;1241;-67
2022/04/30 07:33:42;;;;;;;;;;;;;;;;;;2221760;66;1252;-67
2022/04/30 07:36:18;;;;;;;;;;;;;;;;;;2221461;58;1810;-67
2022/04/30 07:38:51;;;;;;;;;;;;;;;;;;2222110;58;1421;-67
2022/04/30 07:41:24;;;;;;;;;;;;;;;;;;2222690;58;1186;-67
2022/04/30 07:43:57;;;;;;;;;;;;;;;;;;2222236;66;1925;-67
2022/04/30 07:46:30;;;;;;;;;;;;;;;;;;2221637;58;1846;-67
2022/04/30 07:49:03;;;;;;;;;;;;;;;;;;2222060;58;1810;-68
2022/04/30 07:51:42;;;;;;;;;;;;;;;;;;2222326;58;1398;-67
2022/04/30 07:54:15;;;;;;;;;;;;;;;;;;2222323;58;1566;-68
2022/04/30 07:56:48;;;;;;;;;;;;;;;;;;2223049;58;1499;-68
2022/04/30 07:59:22;;;;;;;;;;;;;;;;;;2222206;58;1170;-68
2022/04/30 08:01:55;;;;;;;;;;;;;;;;;;2223058;58;1265;-68
2022/04/30 08:04:28;;;;;;;;;;;;;;;;;;2222441;58;1932;-68
2022/04/30 08:07:04;;;;;;;;;;;;;;;;;;2221684;58;1769;-68
2022/04/30 08:09:37;;;;;;;;;;;;;;;;;;2222903;58;1291;-68
2022/04/30 08:12:12;;;;;;;;;;;;;;;;;;2222760;58;1268;-68
2022/04/30 08:14:45;;;;;;;;;;;;;;;;;;2222424;58;1114;-68
2022/04/30 08:17:18;;;;;;;;;;;;;;;;;;2221703;66;1187;-68
2022/04/30 08:19:52;;;;;;;;;;;;;;;;;;2221989;58;1589;-68
2022/04/30 08:22:27;;;;;;;;;;;;;;;;;;2222367;66;1274;-68
2022/04/30 08:25:02;;;;;;;;;;;;;;;;;;2222353;58;1988;-68
2022/04/30 08:27:35;;;;;;;;;;;;;;;;;;2220645;58;1812;-68
2022/04/30 08:30:09;;;;;;;;;;;;;;;;;;2222988;66;1221;-68
2022/04/30 08:32:42;;;;;;;;;;;;;;;;;;2221711;58;1180;-68
2022/04/30 08:35:16;;;;;;;;;;;;;;;;;;2221221;58;1698;-67
2022/04/30 08:37:51;;;;;;;;;;;;;;;;;;2219990;58;1975;-68
2022/04/30 08:40:25;;;;;;;;;;;;;;;;;;2221945;58;1552;-68
2022/04/30 08:43:07;;;;;;;;;;;;;;;;;;2220992;66;1935;-68
2022/04/30 08:45:41;;;;;;;;;;;;;;;;;;2222119;66;1264;-68
2022/04/30 08:48:15;;;;;;;;;;;;;;;;;;2219751;58;1659;-68
2022/04/30 08:50:49;;;;;;;;;;;;;;;;;;2219050;59;1187;-68
2022/04/30 08:53:25;;;;;;;;;;;;;;;;;;2220490;58;1285;-68
2022/04/30 08:55:59;;;;;;;;;;;;;;;;;;2220565;58;1791;-68
2022/04/30 08:58:32;;;;;;;;;;;;;;;;;;2219669;58;1393;-68
2022/04/30 09:01:07;;;;;;;;;;;;;;;;;;2219663;66;1185;-68
2022/04/30 09:03:40;;;;;;;;;;;;;;;;;;2219655;59;1931;-68
2022/04/30 09:06:19;;;;;;;;;;;;;;;;;;2220385;58;1848;-68
2022/04/30 09:08:55;;;;;;;;;;;;;;;;;;2218521;58;1635;-68
2022/04/30 09:11:33;;;;;;;;;;;;;;;;;;2219247;58;1718;-69
2022/04/30 09:14:06;;;;;;;;;;;;;;;;;;2216705;66;998;-68
2022/04/30 09:16:39;;;;;;;;;;;;;;;;;;2219078;66;1190;-68
2022/04/30 09:19:12;;;;;;;;;;;;;;;;;;2219892;66;1112;-68
2022/04/30 09:21:50;;;;;;;;;;;;;;;;;;2219934;59;1563;-68
2022/04/30 09:24:25;;;;;;;;;;;;;;;;;;2216342;58;1939;-68
2022/04/30 09:27:05;;;;;;;;;;;;;;;;;;2219851;58;1829;-68
2022/04/30 09:29:38;;;;;;;;;;;;;;;;;;2219336;58;1070;-68
2022/04/30 09:32:17;;;;;;;;;;;;;;;;;;2220434;66;1154;-68
2022/04/30 09:37:46;;;;;;;;;;;;;;;;;;2220590;66;1264;-68
2022/04/30 09:40:23;;;;;;;;;;;;;;;;;;2220653;58;1181;-68
2022/04/30 09:42:56;;;;;;;;;;;;;;;;;;2221665;66;1141;-69
2022/04/30 09:45:30;;;;;;;;;;;;;;;;;;2221116;58;1931;-69
2022/04/30 09:53:56;;;;;;;;;;;;;;;;;;2220891;58;1596;-68
2022/04/30 09:54:05;;;;;;;;;;;;;;;;;;2210254;59;1688;-69
2022/04/30 09:56:44;;;;;;;;;;;;;;;;;;2210920;59;1374;-68
2022/04/30 09:59:18;;;;;;;;;;;;;;;;;;2216222;58;1742;-68
2022/04/30 10:01:51;;;;;;;;;;;;;;;;;;2220332;58;1811;-68
2022/04/30 10:04:25;;;;;;;;;;;;;;;;;;2219397;58;1935;-67
2022/04/30 10:07:01;;;;;;;;;;;;;;;;;;2216651;58;1744;-68
2022/04/30 10:09:36;;;;;;;;;;;;;;;;;;2219977;58;1706;-67
2022/04/30 10:12:19;;;;;;;;;;;;;;;;;;2216214;58;1664;-68
2022/04/30 10:15:00;;;;;;;;;;;;;;;;;;2221232;66;1051;-68
2022/04/30 10:17:36;;;;;;;;;;;;;;;;;;2221490;66;1244;-68
2022/04/30 10:20:15;;;;;;;;;;;;;;;;;;2220294;58;1666;-68
2022/04/30 10:22:52;;;;;;;;;;;;;;;;;;2221005;66;1026;-69
2022/04/30 10:25:35;;;;;;;;;;;;;;;;;;2217724;58;2077;-69
2022/04/30 10:28:22;;;;;;;;;;;;;;;;;;2219464;58;1857;-69
2022/04/30 10:31:01;;;;;;;;;;;;;;;;;;2220805;66;1267;-69
2022/04/30 10:33:35;;;;;;;;;;;;;;;;;;2220297;66;1084;-69
2022/04/30 10:36:10;;;;;;;;;;;;;;;;;;2221056;66;1245;-69
2022/04/30 10:38:43;;;;;;;;;;;;;;;;;;2220710;58;1125;-69
2022/04/30 10:41:16;;;;;;;;;;;;;;;;;;2219823;58;1694;-70
2022/04/30 10:44:02;;;;;;;;;;;;;;;;;;2220703;58;1928;-70
2022/04/30 10:46:39;;;;;;;;;;;;;;;;;;2216912;58;1781;-70
2022/04/30 10:49:12;;;;;;;;;;;;;;;;;;2218128;58;1727;-70
2022/04/30 10:51:46;;;;;;;;;;;;;;;;;;2219149;58;1944;-70
2022/04/30 10:54:19;;;;;;;;;;;;;;;;;;2218340;58;2598;-69
2022/04/30 10:57:00;;;;;;;;;;;;;;;;;;2218666;58;2956;-70
2022/04/30 10:59:36;;;;;;;;;;;;;;;;;;2219499;58;1230;-69
2022/04/30 11:02:12;;;;;;;;;;;;;;;;;;2219989;58;1796;-69
2022/04/30 11:04:45;;;;;;;;;;;;;;;;;;2220518;58;1932;-69
2022/04/30 11:07:19;;;;;;;;;;;;;;;;;;2220199;58;1743;-69
2022/04/30 11:09:52;;;;;;;;;;;;;;;;;;2222012;66;1138;-70
2022/04/30 11:12:30;;;;;;;;;;;;;;;;;;2221714;58;1262;-70
2022/04/30 11:15:07;;;;;;;;;;;;;;;;;;2220325;58;1963;-70
2022/04/30 11:17:47;;;;;;;;;;;;;;;;;;2221875;66;1247;-69
2022/04/30 11:20:24;;;;;;;;;;;;;;;;;;2220263;58;1615;-70
2022/04/30 11:22:57;;;;;;;;;;;;;;;;;;2220786;58;1063;-69
2022/04/30 11:25:37;;;;;;;;;;;;;;;;;;2220764;58;1948;-70
2022/04/30 11:28:11;;;;;;;;;;;;;;;;;;2221294;58;1842;-69
2022/04/30 11:30:47;;;;;;;;;;;;;;;;;;2221717;66;1027;-70
2022/04/30 11:33:21;;;;;;;;;;;;;;;;;;2221067;66;1113;-70
2022/04/30 11:35:55;;;;;;;;;;;;;;;;;;2221606;58;1612;-70
2022/04/30 11:38:28;;;;;;;;;;;;;;;;;;2221211;58;1431;-70
2022/04/30 11:41:05;;;;;;;;;;;;;;;;;;2220852;66;1222;-69
2022/04/30 11:43:39;;;;;;;;;;;;;;;;;;2219944;58;1742;-70
2022/04/30 11:46:16;;;;;;;;;;;;;;;;;;2220506;58;1942;-70
2022/04/30 11:48:50;;;;;;;;;;;;;;;;;;2221475;58;1956;-70
2022/04/30 11:51:24;;;;;;;;;;;;;;;;;;2220925;58;2439;-69
2022/04/30 11:53:57;;;;;;;;;;;;;;;;;;2222217;58;2175;-71
2022/04/30 11:56:30;;;;;;;;;;;;;;;;;;2221923;58;2708;-70
2022/04/30 11:59:03;;;;;;;;;;;;;;;;;;2221628;58;2340;-71
2022/04/30 12:01:42;;;;;;;;;;;;;;;;;;2222175;58;2393;-72
2022/04/30 12:04:16;;;;;;;;;;;;;;;;;;2221191;58;2035;-71
2022/04/30 12:06:59;;;;;;;;;;;;;;;;;;2221914;58;1608;-72
2022/04/30 12:09:33;;;;;;;;;;;;;;;;;;2221627;58;2086;-72
2022/04/30 12:12:16;;;;;;;;;;;;;;;;;;2220942;58;1994;-71
2022/04/30 12:14:50;;;;;;;;;;;;;;;;;;2220288;58;1911;-72
2022/04/30 12:17:32;;;;;;;;;;;;;;;;;;2222309;66;1271;-72
2022/04/30 12:26:07;;;;;;;;;;;;;;;;;;2208378;59;1938;-73
2022/04/30 12:28:50;;;;;;;;;;;;;;;;;;2218913;58;2023;-72
2022/04/30 12:31:23;;;;;;;;;;;;;;;;;;2222148;58;1643;-72
2022/04/30 12:33:59;;;;;;;;;;;;;;;;;;2222008;58;1565;-72
2022/04/30 12:36:32;;;;;;;;;;;;;;;;;;2221463;58;1589;-72
2022/04/30 12:39:05;;;;;;;;;;;;;;;;;;2221461;66;1190;-72
2022/04/30 12:41:38;;;;;;;;;;;;;;;;;;2221982;58;1432;-72
2022/04/30 12:44:12;;;;;;;;;;;;;;;;;;2221303;66;1936;-72
2022/04/30 12:46:46;;;;;;;;;;;;;;;;;;2220547;58;1588;-71
2022/04/30 12:49:22;;;;;;;;;;;;;;;;;;2221794;58;1282;-72
2022/04/30 12:51:56;;;;;;;;;;;;;;;;;;2221562;58;1611;-72
2022/04/30 12:54:29;;;;;;;;;;;;;;;;;;2220295;58;1600;-71
2022/04/30 12:57:07;;;;;;;;;;;;;;;;;;2221165;58;2208;-70
2022/04/30 12:59:41;;;;;;;;;;;;;;;;;;2220057;58;2305;-69
2022/04/30 13:02:14;;;;;;;;;;;;;;;;;;2220764;66;1170;-69
2022/04/30 13:04:50;;;;;;;;;;;;;;;;;;2221095;59;1929;-69
2022/04/30 13:07:24;;;;;;;;;;;;;;;;;;2221583;53;3599;-70
2022/04/30 13:15:35;;;;;;;;;;;;;;;;;;2217749;59;1131;-71
2022/04/30 13:18:08;;;;;;;;;;;;;;;;;;2217391;66;1285;-70
2022/04/30 13:20:44;;;;;;;;;;;;;;;;;;2217737;58;1455;-70
2022/04/30 13:23:17;;;;;;;;;;;;;;;;;;2217093;66;1104;-70
2022/04/30 13:25:50;;;;;;;;;;;;;;;;;;2216709;58;1929;-70
2022/04/30 13:28:24;;;;;;;;;;;;;;;;;;2215936;58;1909;-70
2022/04/30 13:30:57;;;;;;;;;;;;;;;;;;2213236;59;2125;-70
2022/04/30 13:33:30;;;;;;;;;;;;;;;;;;2216216;66;1181;-71
2022/04/30 13:36:06;;;;;;;;;;;;;;;;;;2217168;59;1116;-71
2022/04/30 13:38:42;;;;;;;;;;;;;;;;;;2213306;66;1322;-71
2022/04/30 13:41:15;;;;;;;;;;;;;;;;;;2217735;58;1245;-71
2022/04/30 13:43:48;;;;;;;;;;;;;;;;;;2216441;66;1094;-71
2022/04/30 13:46:21;;;;;;;;;;;;;;;;;;2216655;58;1928;-71
2022/04/30 13:48:54;;;;;;;;;;;;;;;;;;2217346;58;1749;-71
2022/04/30 13:51:31;;;;;;;;;;;;;;;;;;2217230;66;1148;-72
2022/04/30 13:54:04;;;;;;;;;;;;;;;;;;2217012;58;1446;-71
2022/04/30 13:56:39;;;;;;;;;;;;;;;;;;2216724;58;1356;-72
2022/04/30 13:59:13;;;;;;;;;;;;;;;;;;2217027;58;1437;-72
2022/04/30 14:01:46;;;;;;;;;;;;;;;;;;2216414;58;1766;-72
2022/04/30 14:04:19;;;;;;;;;;;;;;;;;;2216870;58;1140;-72
2022/04/30 14:06:55;;;;;;;;;;;;;;;;;;2217081;58;1923;-72
2022/04/30 14:09:28;;;;;;;;;;;;;;;;;;2217605;66;1244;-72
2022/04/30 14:12:03;;;;;;;;;;;;;;;;;;2217908;58;1274;-72
2022/04/30 14:20:14;;;;;;;;;;;;;;;;;;2217532;66;1594;-73
2022/04/30 14:22:50;;;;;;;;;;;;;;;;;;2217169;66;1136;-72
2022/04/30 14:25:24;;;;;;;;;;;;;;;;;;2214126;66;1929;-72
2022/04/30 14:27:57;;;;;;;;;;;;;;;;;;2217085;58;1604;-72
2022/04/30 14:30:30;;;;;;;;;;;;;;;;;;2218238;59;1317;-72
2022/04/30 14:33:04;;;;;;;;;;;;;;;;;;2216508;66;1091;-72
2022/04/30 14:35:38;;;;;;;;;;;;;;;;;;2216908;58;1762;-72
2022/04/30 14:38:15;;;;;;;;;;;;;;;;;;2216793;66;1268;-72
2022/04/30 14:40:48;;;;;;;;;;;;;;;;;;2216468;58;1652;-73
2022/04/30 14:43:21;;;;;;;;;;;;;;;;;;2216988;59;1218;-73
2022/04/30 14:45:56;;;;;;;;;;;;;;;;;;2217382;66;1963;-72
2022/04/30 14:48:29;;;;;;;;;;;;;;;;;;2216280;58;1625;-72
2022/04/30 14:51:02;;;;;;;;;;;;;;;;;;2216585;66;1058;-73
2022/04/30 14:53:38;;;;;;;;;;;;;;;;;;2216807;58;1478;-73
2022/04/30 14:56:13;;;;;;;;;;;;;;;;;;2217489;66;1125;-72
2022/04/30 14:58:46;;;;;;;;;;;;;;;;;;2216261;58;1298;-72
2022/04/30 15:01:19;;;;;;;;;;;;;;;;;;2217605;66;1123;-72
2022/04/30 15:03:52;;;;;;;;;;;;;;;;;;2215947;66;1198;-73
2022/04/30 15:06:25;;;;;;;;;;;;;;;;;;2216609;66;1932;-72
2022/04/30 15:09:01;;;;;;;;;;;;;;;;;;2216996;58;1934;-73
2022/04/30 15:11:34;;;;;;;;;;;;;;;;;;2215476;58;1402;-72
2022/04/30 15:14:07;;;;;;;;;;;;;;;;;;2216349;58;1274;-73
2022/04/30 15:16:40;;;;;;;;;;;;;;;;;;2217244;66;1284;-73
2022/04/30 15:19:13;;;;;;;;;;;;;;;;;;2217651;66;1286;-72
2022/04/30 15:21:46;;;;;;;;;;;;;;;;;;2217523;66;1492;-73
2022/04/30 15:24:22;;;;;;;;;;;;;;;;;;2217384;66;1258;-73
2022/04/30 15:26:56;;;;;;;;;;;;;;;;;;2216985;58;1941;-73
2022/04/30 15:29:30;;;;;;;;;;;;;;;;;;2216303;58;1751;-73
2022/04/30 15:32:03;;;;;;;;;;;;;;;;;;2212213;66;1354;-73
2022/04/30 15:34:37;;;;;;;;;;;;;;;;;;2216551;66;1102;-73
2022/04/30 15:37:11;;;;;;;;;;;;;;;;;;2217044;66;1229;-72
2022/04/30 15:39:47;;;;;;;;;;;;;;;;;;2213490;59;1693;-73
2022/04/30 15:42:20;;;;;;;;;;;;;;;;;;2217779;59;1400;-73
2022/04/30 15:44:53;;;;;;;;;;;;;;;;;;2212768;59;1592;-73
2022/04/30 15:53:03;;;;;;;;;;;;;;;;;;2217179;58;1566;-73
2022/04/30 15:55:40;;;;;;;;;;;;;;;;;;2217164;58;1711;-73
2022/04/30 15:58:13;;;;;;;;;;;;;;;;;;2218001;58;1432;-73
2022/04/30 16:00:46;;;;;;;;;;;;;;;;;;2217993;66;1112;-73
2022/04/30 16:03:20;;;;;;;;;;;;;;;;;;2217032;66;1641;-73
2022/04/30 16:05:53;;;;;;;;;;;;;;;;;;2217056;58;1985;-73
2022/04/30 16:08:27;;;;;;;;;;;;;;;;;;2217374;58;1538;-72
2022/04/30 16:11:03;;;;;;;;;;;;;;;;;;2213094;58;1376;-73
2022/04/30 16:13:36;;;;;;;;;;;;;;;;;;2217759;58;1209;-72
2022/04/30 16:16:09;;;;;;;;;;;;;;;;;;2216759;60;1266;-72
2022/04/30 16:18:42;;;;;;;;;;;;;;;;;;2217749;59;1243;-72
2022/04/30 16:21:16;;;;;;;;;;;;;;;;;;2217868;59;1912;-72
2022/04/30 16:23:49;;;;;;;;;;;;;;;;;;2217385;66;1105;-71
2022/04/30 16:26:25;;;;;;;;;;;;;;;;;;2217280;59;1921;-72
2022/04/30 16:28:59;;;;;;;;;;;;;;;;;;2216591;58;1922;-72
2022/04/30 16:31:34;;;;;;;;;;;;;;;;;;2213563;66;1871;-72
2022/04/30 16:34:07;;;;;;;;;;;;;;;;;;2216492;66;1275;-71
2022/04/30 16:36:41;;;;;;;;;;;;;;;;;;2216933;66;1317;-71
2022/04/30 16:39:14;;;;;;;;;;;;;;;;;;2217508;58;1788;-71
2022/04/30 16:41:50;;;;;;;;;;;;;;;;;;2216864;58;1244;-71
2022/04/30 16:44:23;;;;;;;;;;;;;;;;;;2217559;59;1260;-71
2022/04/30 16:46:56;;;;;;;;;;;;;;;;;;2216596;58;1939;-71
2022/04/30 16:49:29;;;;;;;;;;;;;;;;;;2213379;59;1601;-72
2022/04/30 16:57:44;;;;;;;;;;;;;;;;;;2217420;58;1444;-72
2022/04/30 17:00:18;;;;;;;;;;;;;;;;;;2217642;59;1232;-71
2022/04/30 17:02:51;;;;;;;;;;;;;;;;;;2217323;66;1168;-72
2022/04/30 17:05:25;;;;;;;;;;;;;;;;;;2213908;66;1144;-71
2022/04/30 17:07:58;;;;;;;;;;;;;;;;;;2217961;58;1935;-71
2022/04/30 17:10:31;;;;;;;;;;;;;;;;;;2216643;66;1190;-72
2022/04/30 17:13:08;;;;;;;;;;;;;;;;;;2218368;58;1297;-72
2022/04/30 17:15:41;;;;;;;;;;;;;;;;;;2213927;66;1255;-72
2022/04/30 17:18:15;;;;;;;;;;;;;;;;;;2216686;58;1714;-71
2022/04/30 17:20:48;;;;;;;;;;;;;;;;;;2217188;59;1571;-72
2022/04/30 17:23:21;;;;;;;;;;;;;;;;;;2216979;66;1279;-72
2022/04/30 17:25:54;;;;;;;;;;;;;;;;;;2217517;58;1931;-72
2022/04/30 17:28:31;;;;;;;;;;;;;;;;;;2214024;59;1886;-71
2022/04/30 17:39:30;;;;;;;;;;;;;;;;;;2217418;66;1036;-71
2022/04/30 17:42:03;;;;;;;;;;;;;;;;;;2213323;59;1336;-71
2022/04/30 17:44:39;;;;;;;;;;;;;;;;;;2216825;59;1172;-72
2022/04/30 17:47:13;;;;;;;;;;;;;;;;;;2217254;58;1933;-71
2022/04/30 17:49:46;;;;;;;;;;;;;;;;;;2217593;66;1112;-71
2022/04/30 17:52:19;;;;;;;;;;;;;;;;;;2214789;66;2211;-71
2022/04/30 17:54:53;;;;;;;;;;;;;;;;;;2217673;58;1459;-72
2022/04/30 17:57:26;;;;;;;;;;;;;;;;;;2212572;58;1426;-71
2022/04/30 18:00:02;;;;;;;;;;;;;;;;;;2218062;66;1285;-71
2022/04/30 18:02:36;;;;;;;;;;;;;;;;;;2217051;59;1152;-71
2022/04/30 18:05:09;;;;;;;;;;;;;;;;;;2216695;58;1769;-72
2022/04/30 18:07:42;;;;;;;;;;;;;;;;;;2216623;58;1992;-71
2022/04/30 18:10:16;;;;;;;;;;;;;;;;;;2217965;66;1120;-71
2022/04/30 18:12:49;;;;;;;;;;;;;;;;;;2216447;58;1298;-71
2022/04/30 18:15:26;;;;;;;;;;;;;;;;;;2211842;59;1622;-71
2022/04/30 18:17:59;;;;;;;;;;;;;;;;;;2217391;66;1225;-71
2022/04/30 18:20:35;;;;;;;;;;;;;;;;;;2217588;58;1408;-71
2022/04/30 18:23:08;;;;;;;;;;;;;;;;;;2217035;58;1672;-71
2022/04/30 18:25:41;;;;;;;;;;;;;;;;;;2217305;59;1188;-71
2022/04/30 18:28:14;;;;;;;;;;;;;;;;;;2215877;58;1999;-70
2022/04/30 18:30:51;;;;;;;;;;;;;;;;;;2216996;66;1270;-70
2022/04/30 18:33:24;;;;;;;;;;;;;;;;;;2217129;66;1115;-70
2022/04/30 18:35:57;;;;;;;;;;;;;;;;;;2216766;66;1132;-70
2022/04/30 18:38:30;;;;;;;;;;;;;;;;;;2213589;58;1779;-70
2022/04/30 18:41:04;;;;;;;;;;;;;;;;;;2217561;58;1319;-69
2022/04/30 18:43:37;;;;;;;;;;;;;;;;;;2212535;66;1251;-69
2022/04/30 18:46:13;;;;;;;;;;;;;;;;;;2216235;59;1945;-69
2022/04/30 18:48:46;;;;;;;;;;;;;;;;;;2216696;58;1709;-69
2022/04/30 18:51:19;;;;;;;;;;;;;;;;;;2216684;59;1163;-68
2022/04/30 19:02:22;;;;;;;;;;;;;;;;;;2216833;58;2336;-67
2022/04/30 19:04:55;;;;;;;;;;;;;;;;;;2215646;58;1701;-67
2022/04/30 19:07:28;;;;;;;;;;;;;;;;;;2218661;53;3479;-67